createdAt,value
2023-02-08T00:00:44.380Z,35.65
2023-02-08T00:03:11.479Z,25.30
2023-02-08T00:05:38.488Z,25.25
2023-02-08T00:08:05.858Z,28.67
2023-02-08T00:10:32.535Z,23.02
2023-02-08T00:12:59.262Z,23.40
2023-02-08T00:15:26.021Z,23.60
2023-02-08T00:17:52.708Z,23.73
2023-02-08T00:20:19.476Z,22.20
2023-02-08T00:22:46.241Z,21.95
2023-02-08T00:25:12.897Z,21.65
2023-02-08T00:27:39.680Z,21.85
2023-02-08T00:30:08.015Z,20.70
2023-02-08T00:32:34.785Z,20.23
2023-02-08T00:35:01.488Z,19.85
2023-02-08T00:37:28.325Z,19.50
2023-02-08T00:39:55.000Z,19.30
2023-02-08T00:42:23.579Z,19.25
2023-02-08T00:44:50.254Z,18.70
2023-02-08T00:47:16.922Z,18.13
2023-02-08T00:49:43.594Z,16.33
2023-02-08T00:52:10.304Z,15.93
2023-02-08T00:54:37.088Z,15.38
2023-02-08T00:57:05.103Z,14.90
2023-02-08T00:59:31.814Z,14.48
2023-02-08T01:01:58.563Z,16.67
2023-02-08T01:04:25.260Z,17.08
2023-02-08T01:06:52.031Z,16.73
2023-02-08T01:09:18.739Z,17.65
2023-02-08T01:11:45.510Z,18.60
2023-02-08T01:14:12.450Z,18.38
2023-02-08T01:16:39.149Z,17.85
2023-02-08T01:19:06.434Z,17.58
2023-02-08T01:21:40.373Z,17.10
2023-02-08T01:24:07.235Z,16.75
2023-02-08T01:26:34.233Z,17.38
2023-02-08T01:29:01.533Z,17.77
2023-02-08T01:31:37.800Z,16.15
2023-02-08T01:34:05.795Z,16.75
2023-02-08T01:36:33.694Z,16.63
2023-02-08T01:41:36.247Z,15.88
2023-02-08T01:44:27.416Z,16.23
2023-02-08T01:46:54.459Z,16.02
2023-02-08T01:49:30.232Z,15.98
2023-02-08T01:52:08.803Z,16.08
2023-02-08T01:54:41.519Z,15.65
2023-02-08T01:57:08.574Z,16.77
2023-02-08T01:59:47.839Z,15.98
2023-02-08T02:02:17.704Z,14.48
2023-02-08T02:04:45.178Z,14.77
2023-02-08T02:07:13.508Z,16.20
2023-02-08T02:09:48.081Z,15.13
2023-02-08T02:12:15.145Z,14.45
2023-02-08T02:14:43.522Z,14.98
2023-02-08T02:17:14.432Z,15.05
2023-02-08T02:19:52.765Z,14.80
2023-02-08T02:22:31.385Z,14.27
2023-02-08T02:25:35.755Z,14.23
2023-02-08T02:28:50.147Z,13.95
2023-02-08T02:31:44.302Z,13.55
2023-02-08T02:34:32.031Z,13.70
2023-02-08T02:37:28.536Z,13.82
2023-02-08T02:40:33.498Z,13.53
2023-02-08T02:43:29.860Z,13.77
2023-02-08T02:46:31.507Z,13.80
2023-02-08T02:49:01.693Z,13.48
2023-02-08T02:51:48.324Z,14.10
2023-02-08T02:54:26.363Z,14.37
2023-02-08T02:57:00.791Z,12.60
2023-02-08T02:59:28.890Z,14.05
2023-02-08T03:01:56.652Z,13.55
2023-02-08T03:04:32.549Z,13.80
2023-02-08T03:07:17.519Z,13.70
2023-02-08T03:10:05.988Z,14.07
2023-02-08T03:12:44.139Z,14.68
2023-02-08T03:15:41.565Z,13.77
2023-02-08T03:20:43.237Z,13.75
2023-02-08T03:23:20.450Z,12.38
2023-02-08T03:25:59.109Z,12.43
2023-02-08T03:28:35.408Z,13.77
2023-02-08T03:31:10.043Z,12.35
2023-02-08T03:33:57.392Z,13.65
2023-02-08T03:36:33.951Z,14.43
2023-02-08T03:39:06.725Z,13.05
2023-02-08T03:41:37.939Z,13.43
2023-02-08T03:44:17.196Z,14.38
2023-02-08T03:46:53.347Z,12.85
2023-02-08T03:49:28.522Z,14.15
2023-02-08T03:52:00.360Z,13.07
2023-02-08T03:54:31.836Z,12.77
2023-02-08T03:57:10.387Z,13.23
2023-02-08T03:59:41.729Z,13.57
2023-02-08T04:02:12.993Z,11.45
2023-02-08T04:04:43.779Z,13.07
2023-02-08T04:07:10.615Z,12.43
2023-02-08T04:09:38.806Z,12.68
2023-02-08T04:12:06.203Z,13.00
2023-02-08T04:14:32.882Z,13.40
2023-02-08T04:16:59.555Z,12.65
2023-02-08T04:19:26.309Z,12.32
2023-02-08T04:21:52.978Z,12.32
2023-02-08T04:24:20.288Z,13.38
2023-02-08T04:26:47.524Z,14.15
2023-02-08T04:29:14.633Z,14.13
2023-02-08T04:31:41.491Z,13.13
2023-02-08T04:34:08.268Z,13.20
2023-02-08T04:36:34.972Z,14.13
2023-02-08T04:39:01.737Z,13.40
2023-02-08T04:41:28.412Z,13.05
2023-02-08T04:43:55.129Z,13.68
2023-02-08T04:46:21.889Z,13.32
2023-02-08T04:48:48.549Z,12.65
2023-02-08T04:51:15.350Z,12.35
2023-02-08T04:53:42.043Z,12.98
2023-02-08T04:56:08.710Z,12.68
2023-02-08T04:58:36.305Z,13.55
2023-02-08T05:01:10.955Z,13.95
2023-02-08T05:03:37.691Z,13.95
2023-02-08T05:06:04.461Z,13.80
2023-02-08T05:08:31.218Z,14.40
2023-02-08T05:10:57.913Z,14.00
2023-02-08T05:13:24.610Z,13.68
2023-02-08T05:15:51.333Z,13.95
2023-02-08T05:18:18.138Z,13.63
2023-02-08T05:20:45.206Z,12.63
2023-02-08T05:23:12.007Z,13.38
2023-02-08T05:25:39.582Z,13.13
2023-02-08T05:28:06.523Z,12.40
2023-02-08T05:30:33.274Z,13.07
2023-02-08T05:32:59.975Z,12.68
2023-02-08T05:35:26.625Z,13.13
2023-02-08T05:37:53.289Z,12.65
2023-02-08T05:40:20.081Z,13.10
2023-02-08T05:42:47.662Z,12.57
2023-02-08T05:45:14.627Z,12.98
2023-02-08T05:47:42.108Z,12.80
2023-02-08T05:50:10.368Z,13.18
2023-02-08T05:52:37.040Z,13.13
2023-02-08T05:55:03.942Z,12.95
2023-02-08T05:57:32.302Z,13.00
2023-02-08T05:59:59.812Z,11.98
2023-02-08T06:02:26.546Z,11.77
2023-02-08T06:04:53.177Z,13.15
2023-02-08T06:07:19.915Z,13.32
2023-02-08T06:09:48.578Z,12.85
2023-02-08T06:12:15.471Z,14.05
2023-02-08T06:14:42.183Z,14.02
2023-02-08T06:17:08.880Z,13.32
2023-02-08T06:19:35.524Z,14.27
2023-02-08T06:22:02.180Z,14.38
2023-02-08T06:24:28.930Z,14.68
2023-02-08T06:26:56.947Z,15.07
2023-02-08T06:29:23.851Z,17.60
2023-02-08T06:31:50.745Z,18.40
2023-02-08T06:34:17.554Z,18.80
2023-02-08T06:36:45.425Z,18.80
2023-02-08T06:41:38.772Z,17.73
2023-02-08T06:44:05.545Z,17.48
2023-02-08T06:46:32.229Z,17.00
2023-02-08T06:49:00.363Z,16.52
2023-02-08T06:51:27.751Z,15.98
2023-02-08T06:53:54.476Z,15.30
2023-02-08T06:56:21.211Z,14.20
2023-02-08T06:58:48.032Z,15.13
2023-02-08T07:01:15.300Z,14.38
2023-02-08T07:03:42.509Z,15.57
2023-02-08T07:06:17.030Z,14.98
2023-02-08T07:08:43.888Z,14.60
2023-02-08T07:11:14.258Z,15.27
2023-02-08T07:13:40.989Z,14.45
2023-02-08T07:16:09.957Z,14.52
2023-02-08T07:18:37.559Z,14.55
2023-02-08T07:21:04.954Z,14.88
2023-02-08T07:23:31.919Z,14.43
2023-02-08T07:26:01.048Z,15.10
2023-02-08T07:28:28.093Z,15.65
2023-02-08T07:30:55.380Z,16.58
2023-02-08T07:33:22.948Z,16.20
2023-02-08T07:35:50.062Z,16.67
2023-02-08T07:38:19.730Z,16.42
2023-02-08T07:40:47.340Z,18.10
2023-02-08T07:43:14.109Z,18.05
2023-02-08T07:45:50.290Z,20.10
2023-02-08T07:48:16.987Z,19.40
2023-02-08T07:50:43.686Z,18.25
2023-02-08T07:53:10.339Z,16.17
2023-02-08T07:55:37.011Z,14.52
2023-02-08T07:58:03.703Z,12.70
2023-02-08T08:00:30.506Z,12.93
2023-02-08T08:02:57.167Z,12.35
2023-02-08T08:05:23.832Z,11.90
2023-02-08T08:07:50.553Z,11.43
2023-02-08T08:10:17.440Z,12.57
2023-02-08T08:12:44.152Z,12.00
2023-02-08T08:15:11.107Z,12.52
2023-02-08T08:17:39.398Z,15.30
2023-02-08T08:20:06.539Z,15.07
2023-02-08T08:22:33.260Z,14.15
2023-02-08T08:25:00.133Z,13.93
2023-02-08T08:27:27.029Z,12.57
2023-02-08T08:29:53.753Z,12.77
2023-02-08T08:32:20.513Z,12.68
2023-02-08T08:34:47.205Z,12.38
2023-02-08T08:37:13.933Z,12.13
2023-02-08T08:39:40.615Z,11.25
2023-02-08T08:42:07.478Z,12.23
2023-02-08T08:44:34.361Z,10.52
2023-02-08T08:47:01.600Z,11.18
2023-02-08T08:49:29.326Z,11.68
2023-02-08T08:51:56.761Z,13.75
2023-02-08T08:54:23.964Z,12.93
2023-02-08T08:56:50.657Z,12.48
2023-02-08T08:59:17.431Z,17.52
2023-02-08T09:01:44.177Z,11.50
2023-02-08T09:04:11.253Z,10.65
2023-02-08T09:06:38.680Z,12.35
2023-02-08T09:09:06.462Z,10.60
2023-02-08T09:11:33.818Z,10.20
2023-02-08T09:14:04.895Z,11.95
2023-02-08T09:16:32.602Z,14.18
2023-02-08T09:19:06.601Z,11.77
2023-02-08T09:21:34.144Z,11.25
2023-02-08T09:24:01.644Z,11.95
2023-02-08T09:26:28.415Z,13.48
2023-02-08T09:28:55.099Z,14.07
2023-02-08T09:31:25.103Z,17.48
2023-02-08T09:33:54.568Z,12.55
2023-02-08T09:36:23.547Z,10.93
2023-02-08T09:38:51.717Z,10.63
2023-02-08T09:41:32.110Z,11.50
2023-02-08T09:44:20.092Z,12.40
2023-02-08T09:47:01.216Z,10.80
2023-02-08T09:49:34.527Z,10.60
2023-02-08T09:52:05.205Z,11.10
2023-02-08T09:54:42.908Z,11.27
2023-02-08T09:57:24.133Z,10.13
2023-02-08T09:59:58.829Z,8.45
2023-02-08T10:02:28.655Z,9.25
2023-02-08T10:05:00.488Z,10.45
2023-02-08T10:07:29.234Z,9.45
2023-02-08T10:10:00.275Z,9.32
2023-02-08T10:12:32.765Z,9.18
2023-02-08T10:14:59.385Z,8.70
2023-02-08T10:17:50.444Z,9.85
2023-02-08T10:20:22.840Z,9.85
2023-02-08T10:23:13.378Z,9.20
2023-02-08T10:26:07.394Z,9.45
2023-02-08T10:28:46.085Z,7.70
2023-02-08T10:31:21.744Z,8.50
2023-02-08T10:34:02.036Z,7.72
2023-02-08T10:36:35.880Z,8.25
2023-02-08T10:39:04.112Z,7.82
2023-02-08T10:41:36.097Z,8.90
2023-02-08T10:44:46.899Z,8.57
2023-02-08T10:47:42.947Z,8.73
2023-02-08T10:50:30.926Z,14.52
2023-02-08T10:52:57.695Z,7.95
2023-02-08T10:55:25.078Z,7.97
2023-02-08T10:57:56.784Z,7.40
2023-02-08T11:00:33.743Z,7.70
2023-02-08T11:03:17.454Z,6.78
2023-02-08T11:05:45.694Z,7.40
2023-02-08T11:08:19.724Z,7.40
2023-02-08T11:10:57.154Z,7.10
2023-02-08T11:13:27.635Z,7.60
2023-02-08T11:16:03.060Z,7.40
2023-02-08T11:18:32.138Z,8.38
2023-02-08T11:21:02.292Z,7.55
2023-02-08T11:23:31.862Z,7.68
2023-02-08T11:26:35.681Z,7.88
2023-02-08T11:29:17.550Z,8.23
2023-02-08T11:32:00.250Z,8.35
2023-02-08T11:34:41.460Z,8.70
2023-02-08T11:37:26.034Z,8.82
2023-02-08T11:39:58.110Z,7.70
2023-02-08T11:42:28.438Z,7.75
2023-02-08T11:44:57.292Z,7.63
2023-02-08T11:47:26.714Z,7.93
2023-02-08T11:49:56.345Z,6.95
2023-02-08T11:52:36.152Z,7.00
2023-02-08T11:55:24.344Z,6.40
2023-02-08T11:58:25.287Z,6.43
2023-02-08T12:01:16.016Z,5.22
2023-02-08T12:03:44.256Z,4.97
2023-02-08T12:06:23.111Z,4.63
2023-02-08T12:09:09.361Z,2.95
2023-02-08T12:11:42.912Z,2.67
2023-02-08T12:14:15.951Z,2.72
2023-02-08T12:16:45.357Z,5.45
2023-02-08T12:19:29.050Z,3.63
2023-02-08T12:22:09.221Z,6.22
2023-02-08T12:25:14.436Z,6.05
2023-02-08T12:28:06.650Z,1.88
2023-02-08T12:30:50.315Z,1.70
2023-02-08T12:33:50.324Z,1.30
2023-02-08T12:36:41.398Z,1.50
2023-02-08T12:40:08.701Z,1.50
2023-02-08T12:43:13.860Z,1.75
2023-02-08T12:45:52.838Z,2.15
2023-02-08T12:48:34.754Z,2.33
2023-02-08T12:51:36.126Z,2.38
2023-02-08T12:54:27.456Z,2.85
2023-02-08T12:57:02.352Z,2.40
2023-02-08T12:59:47.538Z,2.10
2023-02-08T13:02:25.557Z,6.65
2023-02-08T13:04:59.598Z,6.80
2023-02-08T13:07:44.061Z,2.63
2023-02-08T13:10:38.272Z,2.60
2023-02-08T13:13:14.703Z,2.60
2023-02-08T13:15:47.203Z,3.38
2023-02-08T13:18:29.689Z,2.60
2023-02-08T13:21:05.291Z,2.88
2023-02-08T13:23:53.031Z,2.60
2023-02-08T13:26:28.009Z,3.25
2023-02-08T13:28:58.863Z,2.90
2023-02-08T13:31:43.634Z,3.13
2023-02-08T13:34:31.557Z,3.13
2023-02-08T13:37:02.009Z,2.60
2023-02-08T13:39:36.965Z,2.72
2023-02-08T13:42:06.808Z,2.53
2023-02-08T13:44:40.337Z,2.83
2023-02-08T13:47:07.886Z,3.03
2023-02-08T13:49:49.687Z,2.97
2023-02-08T13:52:47.434Z,2.80
2023-02-08T13:55:33.575Z,2.60
2023-02-08T13:58:23.512Z,2.70
2023-02-08T14:00:53.264Z,2.80
2023-02-08T14:03:23.210Z,4.45
2023-02-08T14:05:59.597Z,3.15
2023-02-08T14:08:40.649Z,2.92
2023-02-08T14:11:32.698Z,3.00
2023-02-08T14:14:21.371Z,2.50
2023-02-08T14:17:29.672Z,2.55
2023-02-08T14:20:02.697Z,2.50
2023-02-08T14:22:48.017Z,2.28
2023-02-08T14:25:22.880Z,3.22
2023-02-08T14:27:54.040Z,2.35
2023-02-08T14:30:26.756Z,2.20
2023-02-08T14:33:06.365Z,2.03
2023-02-08T14:35:37.650Z,2.40
2023-02-08T14:38:19.513Z,2.22
2023-02-08T14:41:03.246Z,2.50
2023-02-08T14:43:29.865Z,2.38
2023-02-08T14:45:56.787Z,2.28
2023-02-08T14:48:26.854Z,2.30
2023-02-08T14:51:11.859Z,2.08
2023-02-08T14:53:51.115Z,2.25
2023-02-08T14:56:23.224Z,2.63
2023-02-08T14:58:55.570Z,2.28
2023-02-08T15:01:44.705Z,2.10
2023-02-08T15:04:12.497Z,2.13
2023-02-08T15:06:39.491Z,2.42
2023-02-08T15:09:45.178Z,2.30
2023-02-08T15:12:23.034Z,2.75
2023-02-08T15:14:50.029Z,8.98
2023-02-08T15:17:26.342Z,17.73
2023-02-08T15:19:53.872Z,7.10
2023-02-08T15:22:32.051Z,5.50
2023-02-08T15:25:01.978Z,2.90
2023-02-08T15:27:31.632Z,3.13
2023-02-08T15:29:58.828Z,3.03
2023-02-08T15:32:28.329Z,2.53
2023-02-08T15:34:58.346Z,2.65
2023-02-08T15:37:25.677Z,2.55
2023-02-08T15:39:56.355Z,2.65
2023-02-08T15:42:29.070Z,2.60
2023-02-08T15:44:56.451Z,3.35
2023-02-08T15:47:30.780Z,2.58
2023-02-08T15:49:58.942Z,3.22
2023-02-08T15:52:36.174Z,3.00
2023-02-08T15:55:07.100Z,2.80
2023-02-08T15:57:45.734Z,2.97
2023-02-08T16:00:17.312Z,11.93
2023-02-08T16:02:44.282Z,7.82
2023-02-08T16:05:19.528Z,4.53
2023-02-08T16:07:46.865Z,2.60
2023-02-08T16:10:25.348Z,2.70
2023-02-08T16:12:53.553Z,2.47
2023-02-08T16:15:35.486Z,3.42
2023-02-08T16:18:02.002Z,3.50
2023-02-08T16:20:34.135Z,2.65
2023-02-08T16:23:02.009Z,2.85
2023-02-08T16:25:43.670Z,5.20
2023-02-08T16:28:25.233Z,10.35
2023-02-08T16:30:51.848Z,8.02
2023-02-08T16:33:18.739Z,6.20
2023-02-08T16:35:45.415Z,5.90
2023-02-08T16:38:17.738Z,5.45
2023-02-08T16:40:49.861Z,4.68
2023-02-08T16:43:26.442Z,3.22
2023-02-08T16:46:11.413Z,3.70
2023-02-08T16:48:40.693Z,3.15
2023-02-08T16:51:10.901Z,3.25
2023-02-08T16:53:42.306Z,4.10
2023-02-08T16:56:10.691Z,5.18
2023-02-08T17:01:03.854Z,6.07
2023-02-08T17:03:30.649Z,6.80
2023-02-08T17:05:57.211Z,5.97
2023-02-08T17:08:23.757Z,5.75
2023-02-08T17:10:52.056Z,6.50
2023-02-08T17:13:20.672Z,6.65
2023-02-08T17:15:48.912Z,6.45
2023-02-08T17:20:42.162Z,6.13
2023-02-08T17:23:09.589Z,7.60
2023-02-08T17:25:36.403Z,7.28
2023-02-08T17:28:05.009Z,7.43
2023-02-08T17:30:33.980Z,6.82
2023-02-08T17:33:00.565Z,6.63
2023-02-08T17:35:28.498Z,6.40
2023-02-08T17:40:26.934Z,8.02
2023-02-08T17:42:53.762Z,8.25
2023-02-08T17:45:20.435Z,8.30
2023-02-08T17:47:47.024Z,8.48
2023-02-08T17:50:14.679Z,8.13
2023-02-08T17:52:42.779Z,10.48
2023-02-08T17:55:10.415Z,9.48
2023-02-08T17:57:39.457Z,10.10
2023-02-08T18:00:08.485Z,10.15
2023-02-08T18:02:38.661Z,11.65
2023-02-08T18:05:05.402Z,13.23
2023-02-08T18:07:32.009Z,12.48
2023-02-08T18:09:58.569Z,12.50
2023-02-08T18:12:25.204Z,12.35
2023-02-08T18:14:51.763Z,11.57
2023-02-08T18:17:18.275Z,12.25
2023-02-08T18:19:44.810Z,12.45
2023-02-08T18:22:11.345Z,12.50
2023-02-08T18:24:37.967Z,11.82
2023-02-08T18:27:04.499Z,12.27
2023-02-08T18:29:31.086Z,12.00
2023-02-08T18:31:57.751Z,12.48
2023-02-08T18:34:24.356Z,12.57
2023-02-08T18:36:50.942Z,12.15
2023-02-08T18:39:23.035Z,11.25
2023-02-08T18:41:50.766Z,11.45
2023-02-08T18:44:17.768Z,11.50
2023-02-08T18:46:44.501Z,12.23
2023-02-08T18:49:15.245Z,12.77
2023-02-08T18:51:44.741Z,11.77
2023-02-08T18:54:13.786Z,12.57
2023-02-08T18:56:41.456Z,14.60
2023-02-08T18:59:08.497Z,13.40
2023-02-08T19:01:35.586Z,14.35
2023-02-08T19:04:03.408Z,13.57
2023-02-08T19:06:31.649Z,13.57
2023-02-08T19:09:01.524Z,13.27
2023-02-08T19:11:30.760Z,12.52
2023-02-08T19:13:58.392Z,13.52
2023-02-08T19:16:25.601Z,13.88
2023-02-08T19:18:56.515Z,13.68
2023-02-08T19:21:23.588Z,12.50
2023-02-08T19:23:54.040Z,12.83
2023-02-08T19:26:21.861Z,12.20
2023-02-08T19:28:48.668Z,13.27
2023-02-08T19:31:17.055Z,13.80
2023-02-08T19:33:44.656Z,14.50
2023-02-08T19:36:12.659Z,14.82
2023-02-08T19:38:39.346Z,15.05
2023-02-08T19:41:06.506Z,16.92
2023-02-08T19:43:33.171Z,17.10
2023-02-08T19:46:00.136Z,17.95
2023-02-08T19:48:27.231Z,19.53
2023-02-08T19:50:58.096Z,19.23
2023-02-08T19:53:25.399Z,20.10
2023-02-08T19:55:58.957Z,21.77
2023-02-08T19:58:25.825Z,20.65
2023-02-08T20:00:52.612Z,20.30
2023-02-08T20:03:21.857Z,19.67
2023-02-08T20:05:49.449Z,19.63
2023-02-08T20:08:16.050Z,19.42
2023-02-08T20:10:44.241Z,18.38
2023-02-08T20:13:11.421Z,18.85
2023-02-08T20:15:39.174Z,23.48
2023-02-08T20:18:06.022Z,27.50
2023-02-08T20:20:32.596Z,28.27
2023-02-08T20:23:02.050Z,32.25
2023-02-08T20:25:29.788Z,33.22
2023-02-08T20:27:56.653Z,33.35
2023-02-08T20:30:25.132Z,33.42
2023-02-08T20:32:54.548Z,33.95
2023-02-08T20:35:21.619Z,33.70
2023-02-08T20:37:48.420Z,34.17
2023-02-08T20:40:15.652Z,31.88
2023-02-08T20:42:42.192Z,30.80
2023-02-08T20:45:09.079Z,30.10
2023-02-08T20:47:45.813Z,29.08
2023-02-08T20:50:18.661Z,29.83
2023-02-08T20:52:46.945Z,29.25
2023-02-08T20:55:13.587Z,29.45
2023-02-08T20:57:40.156Z,28.75
2023-02-08T21:00:06.982Z,29.73
2023-02-08T21:02:33.618Z,30.60
2023-02-08T21:05:00.279Z,30.48
2023-02-08T21:07:26.786Z,29.50
2023-02-08T21:09:53.432Z,28.15
2023-02-08T21:12:20.023Z,29.35
2023-02-08T21:14:46.789Z,28.00
2023-02-08T21:17:13.341Z,29.02
2023-02-08T21:19:39.880Z,28.13
2023-02-08T21:22:06.489Z,27.23
2023-02-08T21:24:33.049Z,23.63
2023-02-08T21:26:59.735Z,27.35
2023-02-08T21:29:26.365Z,23.27
2023-02-08T21:31:54.401Z,20.92
2023-02-08T21:34:21.605Z,20.67
2023-02-08T21:36:48.372Z,20.27
2023-02-08T21:39:14.944Z,21.38
2023-02-08T21:41:41.445Z,21.73
2023-02-08T21:44:09.282Z,18.05
2023-02-08T21:46:36.024Z,20.30
2023-02-08T21:49:21.121Z,20.10
2023-02-08T21:52:06.493Z,20.23
2023-02-08T21:54:42.914Z,20.17
2023-02-08T21:57:15.502Z,21.75
2023-02-08T21:59:42.543Z,21.23
2023-02-08T22:02:21.884Z,21.50
2023-02-08T22:04:48.958Z,22.77
2023-02-08T22:07:16.103Z,22.73
2023-02-08T22:09:42.765Z,24.15
2023-02-08T22:12:16.616Z,22.73
2023-02-08T22:14:43.574Z,24.13
2023-02-08T22:17:10.727Z,26.67
2023-02-08T22:19:38.384Z,29.93
2023-02-08T22:22:05.011Z,29.02
2023-02-08T22:24:32.652Z,25.65
2023-02-08T22:26:59.218Z,23.63
2023-02-08T22:29:25.778Z,23.88
2023-02-08T22:31:52.518Z,22.48
2023-02-08T22:34:19.889Z,17.95
2023-02-08T22:36:46.654Z,18.13
2023-02-08T22:39:13.226Z,17.25
2023-02-08T22:41:39.734Z,17.23
2023-02-08T22:44:06.294Z,17.85
2023-02-08T22:46:32.966Z,17.90
2023-02-08T22:48:59.607Z,17.55
2023-02-08T22:51:26.208Z,16.65
2023-02-08T22:53:52.779Z,15.88
2023-02-08T22:56:19.453Z,17.67
2023-02-08T22:58:45.957Z,17.75
2023-02-08T23:01:13.605Z,20.98
2023-02-08T23:03:40.359Z,16.88
2023-02-08T23:06:07.788Z,17.52
2023-02-08T23:08:34.676Z,16.83
2023-02-08T23:11:02.834Z,15.13
2023-02-08T23:13:29.873Z,14.90
2023-02-08T23:15:56.841Z,14.83
2023-02-08T23:18:23.968Z,11.77
2023-02-08T23:20:50.572Z,13.10
2023-02-08T23:23:17.132Z,19.13
2023-02-08T23:25:43.895Z,17.70
2023-02-08T23:28:11.877Z,13.75
2023-02-08T23:33:04.989Z,11.30
2023-02-08T23:35:31.591Z,10.82
2023-02-08T23:37:58.245Z,10.55
2023-02-08T23:40:24.769Z,10.00
2023-02-08T23:42:51.309Z,10.13
2023-02-08T23:45:17.896Z,10.10
2023-02-08T23:47:44.443Z,9.70
2023-02-08T23:50:11.122Z,9.73
2023-02-08T23:52:37.878Z,10.07
2023-02-08T23:55:05.185Z,10.02
2023-02-08T23:57:35.612Z,11.77
